createdAt,value
2023-02-13T00:00:22.844Z,103822.97
2023-02-13T00:02:53.351Z,103817.30
2023-02-13T00:05:23.555Z,103816.73
2023-02-13T00:07:53.613Z,103812.56
2023-02-13T00:10:23.619Z,103809.13
2023-02-13T00:12:53.453Z,103809.24
2023-02-13T00:15:22.990Z,103811.20
2023-02-13T00:17:53.094Z,103809.72
2023-02-13T00:20:22.631Z,103809.72
2023-02-13T00:22:52.779Z,103810.06
2023-02-13T00:25:22.281Z,103811.08
2023-02-13T00:27:55.586Z,103810.35
2023-02-13T00:30:25.324Z,103807.64
2023-02-13T00:32:55.438Z,103802.20
2023-02-13T00:35:26.117Z,103800.52
2023-02-13T00:37:56.234Z,103796.13
2023-02-13T00:42:55.310Z,103787.62
2023-02-13T00:45:25.413Z,103792.28
2023-02-13T00:47:55.513Z,103796.30
2023-02-13T00:50:25.342Z,103797.98
2023-02-13T00:52:55.424Z,103798.34
2023-02-13T00:55:25.186Z,103796.98
2023-02-13T00:57:54.942Z,103791.73
2023-02-13T01:00:25.086Z,103793.84
2023-02-13T01:02:54.928Z,103794.47
2023-02-13T01:05:25.010Z,103801.74
2023-02-13T01:07:54.863Z,103802.84
2023-02-13T01:10:24.502Z,103801.92
2023-02-13T01:12:54.915Z,103799.58
2023-02-13T01:15:25.155Z,103800.70
2023-02-13T01:17:57.535Z,103799.27
2023-02-13T01:20:29.532Z,103799.72
2023-02-13T01:22:59.784Z,103797.28
2023-02-13T01:25:29.820Z,103799.75
2023-02-13T01:28:00.627Z,103798.95
2023-02-13T01:30:30.431Z,103797.52
2023-02-13T01:33:00.516Z,103798.56
2023-02-13T01:35:30.286Z,103796.55
2023-02-13T01:38:00.347Z,103790.95
2023-02-13T01:40:29.998Z,103786.37
2023-02-13T01:42:59.829Z,103788.58
2023-02-13T01:45:34.682Z,103788.22
2023-02-13T01:48:07.830Z,103786.75
2023-02-13T01:50:40.679Z,103786.00
2023-02-13T01:53:22.661Z,103792.87
2023-02-13T01:55:59.845Z,103781.20
2023-02-13T01:58:32.452Z,103783.55
2023-02-13T02:01:03.165Z,103780.70
2023-02-13T02:03:36.254Z,103776.98
2023-02-13T02:06:10.767Z,103765.48
2023-02-13T02:08:40.858Z,103769.44
2023-02-13T02:11:16.442Z,103772.17
2023-02-13T02:13:47.354Z,103772.52
2023-02-13T02:16:18.890Z,103770.07
2023-02-13T02:18:50.069Z,103772.78
2023-02-13T02:21:31.483Z,103766.21
2023-02-13T02:24:22.373Z,103769.81
2023-02-13T02:27:21.945Z,103771.94
2023-02-13T02:30:20.663Z,103766.47
2023-02-13T02:33:08.594Z,103775.89
2023-02-13T02:35:41.465Z,103768.44
2023-02-13T02:38:15.403Z,103766.61
2023-02-13T02:40:51.108Z,103763.25
2023-02-13T02:43:36.032Z,103763.25
2023-02-13T02:46:19.526Z,103759.53
2023-02-13T02:49:09.806Z,103763.25
2023-02-13T02:51:46.146Z,103760.16
2023-02-13T02:55:05.921Z,103766.84
2023-02-13T02:57:57.985Z,103773.14
2023-02-13T03:00:47.881Z,103766.08
2023-02-13T03:03:41.958Z,103760.05
2023-02-13T03:06:20.229Z,103768.55
2023-02-13T03:09:13.730Z,103765.34
2023-02-13T03:12:03.603Z,103762.90
2023-02-13T03:14:33.916Z,103763.98
2023-02-13T03:17:23.609Z,103766.36
2023-02-13T03:20:26.314Z,103763.31
2023-02-13T03:23:05.366Z,103762.23
2023-02-13T03:25:41.015Z,103766.70
2023-02-13T03:28:43.679Z,103766.94
2023-02-13T03:31:41.420Z,103762.73
2023-02-13T03:34:17.197Z,103763.75
2023-02-13T03:37:07.422Z,103763.14
2023-02-13T03:39:49.378Z,103767.70
2023-02-13T03:42:40.111Z,103775.15
2023-02-13T03:45:35.494Z,103775.23
2023-02-13T03:48:10.370Z,103767.06
2023-02-13T03:50:43.500Z,103774.13
2023-02-13T03:53:15.832Z,103772.48
2023-02-13T03:56:05.654Z,103771.39
2023-02-13T03:59:01.868Z,103769.30
2023-02-13T04:01:35.032Z,103763.62
2023-02-13T04:04:24.203Z,103756.42
2023-02-13T04:07:02.935Z,103765.73
2023-02-13T04:09:35.236Z,103769.06
2023-02-13T04:12:17.124Z,103772.17
2023-02-13T04:14:53.123Z,103769.67
2023-02-13T04:17:28.240Z,103769.17
2023-02-13T04:19:58.426Z,103770.55
2023-02-13T04:22:27.951Z,103777.33
2023-02-13T04:24:58.000Z,103772.52
2023-02-13T04:27:29.706Z,103766.45
2023-02-13T04:29:59.760Z,103768.09
2023-02-13T04:32:29.563Z,103763.86
2023-02-13T04:34:59.396Z,103761.63
2023-02-13T04:37:29.163Z,103769.13
2023-02-13T04:39:59.275Z,103762.77
2023-02-13T04:42:31.536Z,103760.88
2023-02-13T04:45:02.650Z,103768.55
2023-02-13T04:47:32.426Z,103761.24
2023-02-13T04:50:02.197Z,103762.08
2023-02-13T04:52:31.688Z,103754.39
2023-02-13T04:55:01.457Z,103767.47
2023-02-13T04:57:31.501Z,103763.27
2023-02-13T05:00:01.236Z,103758.76
2023-02-13T05:02:31.836Z,103749.59
2023-02-13T05:05:01.599Z,103719.02
2023-02-13T05:07:31.432Z,103719.02
2023-02-13T05:10:01.229Z,103753.38
2023-02-13T05:12:31.123Z,103742.13
2023-02-13T05:15:01.012Z,103742.13
2023-02-13T05:17:31.171Z,103741.23
2023-02-13T05:20:01.105Z,103741.42
2023-02-13T05:22:48.455Z,103743.28
2023-02-13T05:25:18.242Z,103731.25
2023-02-13T05:27:48.014Z,103734.78
2023-02-13T05:30:20.223Z,103731.72
2023-02-13T05:32:51.795Z,103728.23
2023-02-13T05:35:25.609Z,103729.69
2023-02-13T05:37:55.436Z,103736.39
2023-02-13T05:40:28.255Z,103729.95
2023-02-13T05:42:58.089Z,103729.80
2023-02-13T05:45:27.854Z,103731.09
2023-02-13T05:47:57.921Z,103732.00
2023-02-13T05:50:27.480Z,103740.68
2023-02-13T05:52:57.739Z,103735.67
2023-02-13T05:55:27.506Z,103741.64
2023-02-13T05:57:58.460Z,103745.54
2023-02-13T06:00:28.412Z,103739.03
2023-02-13T06:02:58.232Z,103733.64
2023-02-13T06:05:28.134Z,103733.64
2023-02-13T06:07:57.871Z,103737.10
2023-02-13T06:10:27.545Z,103741.17
2023-02-13T06:12:57.296Z,103737.23
2023-02-13T06:15:27.172Z,103736.70
2023-02-13T06:17:57.348Z,103736.70
2023-02-13T06:20:26.816Z,103733.61
2023-02-13T06:22:56.670Z,103738.81
2023-02-13T06:25:26.751Z,103737.36
2023-02-13T06:27:56.675Z,103732.11
2023-02-13T06:30:26.231Z,103736.50
2023-02-13T06:32:56.123Z,103736.67
2023-02-13T06:35:25.981Z,103736.27
2023-02-13T06:37:55.839Z,103733.06
2023-02-13T06:40:25.667Z,103738.29
2023-02-13T06:42:55.430Z,103738.08
2023-02-13T06:45:25.326Z,103732.00
2023-02-13T06:47:55.130Z,103739.52
2023-02-13T06:50:24.987Z,103738.89
2023-02-13T06:52:55.057Z,103738.91
2023-02-13T06:55:24.816Z,103744.89
2023-02-13T06:57:54.932Z,103741.84
2023-02-13T07:00:26.199Z,103735.41
2023-02-13T07:02:56.289Z,103748.80
2023-02-13T07:05:26.244Z,103749.41
2023-02-13T07:07:56.086Z,103751.73
2023-02-13T07:10:25.991Z,103757.96
2023-02-13T07:13:05.433Z,103759.20
2023-02-13T07:15:27.244Z,103765.34
2023-02-13T07:17:58.280Z,103767.41
2023-02-13T07:20:28.727Z,103768.57
2023-02-13T07:23:04.715Z,103771.81
2023-02-13T07:25:35.224Z,103771.81
2023-02-13T07:28:07.037Z,103781.63
2023-02-13T07:30:37.201Z,103781.31
2023-02-13T07:33:07.143Z,103784.01
2023-02-13T07:35:37.639Z,103790.79
2023-02-13T07:38:10.040Z,103790.79
2023-02-13T07:40:39.575Z,103793.66
2023-02-13T07:43:09.495Z,103792.17
2023-02-13T07:45:39.329Z,103793.61
2023-02-13T07:48:08.971Z,103789.44
2023-02-13T07:50:38.718Z,103786.64
2023-02-13T07:53:10.265Z,103786.43
2023-02-13T07:55:39.922Z,103788.38
2023-02-13T07:58:09.563Z,103783.69
2023-02-13T08:00:39.472Z,103780.52
2023-02-13T08:03:10.463Z,103782.77
2023-02-13T08:05:41.056Z,103783.91
2023-02-13T08:08:10.620Z,103782.95
2023-02-13T08:10:59.291Z,103783.45
2023-02-13T08:13:29.505Z,103783.77
2023-02-13T08:15:59.806Z,103793.22
2023-02-13T08:18:29.400Z,103793.22
2023-02-13T08:20:59.116Z,103792.57
2023-02-13T08:23:29.089Z,103796.05
2023-02-13T08:26:01.886Z,103790.98
2023-02-13T08:28:31.943Z,103796.03
2023-02-13T08:31:01.922Z,103798.19
2023-02-13T08:33:32.039Z,103802.86
2023-02-13T08:36:04.692Z,103799.13
2023-02-13T08:38:34.714Z,103800.44
2023-02-13T08:41:04.679Z,103806.45
2023-02-13T08:43:34.580Z,103811.35
2023-02-13T08:46:06.645Z,103806.95
2023-02-13T08:48:36.565Z,103806.95
2023-02-13T08:51:11.939Z,103808.67
2023-02-13T08:53:42.813Z,103805.84
2023-02-13T08:56:13.256Z,103809.69
2023-02-13T08:58:43.073Z,103807.09
2023-02-13T09:01:13.201Z,103802.37
2023-02-13T09:03:42.717Z,103813.16
2023-02-13T09:06:12.858Z,103811.65
2023-02-13T09:08:44.346Z,103808.03
2023-02-13T09:11:14.523Z,103801.89
2023-02-13T09:13:44.414Z,103805.41
2023-02-13T09:16:15.648Z,103801.88
2023-02-13T09:18:47.313Z,103802.45
2023-02-13T09:21:17.956Z,103807.05
2023-02-13T09:23:48.026Z,103798.92
2023-02-13T09:26:19.776Z,103805.29
2023-02-13T09:28:50.250Z,103810.14
2023-02-13T09:31:24.155Z,103810.03
2023-02-13T09:33:53.807Z,103805.73
2023-02-13T09:36:24.974Z,103815.79
2023-02-13T09:38:57.378Z,103809.70
2023-02-13T09:41:39.768Z,103813.78
2023-02-13T09:44:35.796Z,103810.33
2023-02-13T09:47:35.579Z,103803.48
2023-02-13T09:50:22.343Z,103803.38
2023-02-13T09:52:52.404Z,103806.44
2023-02-13T09:55:25.159Z,103806.88
2023-02-13T09:58:16.364Z,103807.83
2023-02-13T10:00:50.899Z,103806.59
2023-02-13T10:03:27.149Z,103801.84
2023-02-13T10:06:06.390Z,103799.34
2023-02-13T10:08:41.983Z,103808.62
2023-02-13T10:11:30.884Z,103803.25
2023-02-13T10:14:15.252Z,103807.75
2023-02-13T10:16:53.737Z,103809.05
2023-02-13T10:19:38.551Z,103801.25
2023-02-13T10:22:19.095Z,103803.96
2023-02-13T10:24:57.754Z,103797.50
2023-02-13T10:27:33.403Z,103802.68
2023-02-13T10:30:06.826Z,103801.05
2023-02-13T10:32:42.819Z,103794.39
2023-02-13T10:35:17.953Z,103794.39
2023-02-13T10:37:51.222Z,103789.31
2023-02-13T10:40:21.500Z,103800.00
2023-02-13T10:43:02.890Z,103791.96
2023-02-13T10:45:58.298Z,103800.98
2023-02-13T10:48:39.812Z,103800.02
2023-02-13T10:51:44.151Z,103794.70
2023-02-13T10:54:23.504Z,103785.60
2023-02-13T10:57:05.028Z,103789.82
2023-02-13T10:59:43.703Z,103787.50
2023-02-13T11:02:25.674Z,103785.13
2023-02-13T11:05:04.406Z,103788.78
2023-02-13T11:07:37.561Z,103777.06
2023-02-13T11:12:50.109Z,103774.75
2023-02-13T11:15:31.624Z,103768.65
2023-02-13T11:18:18.338Z,103760.84
2023-02-13T11:20:49.339Z,103763.21
2023-02-13T11:23:31.359Z,103759.28
2023-02-13T11:26:04.477Z,103753.61
2023-02-13T11:28:37.370Z,103754.44
2023-02-13T11:31:15.976Z,103754.52
2023-02-13T11:33:45.881Z,103748.09
2023-02-13T11:36:33.446Z,103742.54
2023-02-13T11:39:06.933Z,103739.37
2023-02-13T11:41:44.877Z,103739.55
2023-02-13T11:44:26.422Z,103740.69
2023-02-13T11:47:01.386Z,103738.17
2023-02-13T11:49:33.989Z,103729.74
2023-02-13T11:52:08.567Z,103730.61
2023-02-13T11:54:41.334Z,103730.70
2023-02-13T11:57:34.113Z,103722.33
2023-02-13T12:00:24.824Z,103724.58
2023-02-13T12:02:54.746Z,103725.02
2023-02-13T12:05:27.831Z,103725.58
2023-02-13T12:08:00.916Z,103718.34
2023-02-13T12:10:33.466Z,103718.34
2023-02-13T12:13:23.858Z,103714.72
2023-02-13T12:15:57.200Z,103716.89
2023-02-13T12:18:32.331Z,103712.40
2023-02-13T12:21:13.914Z,103712.05
2023-02-13T12:24:02.893Z,103707.67
2023-02-13T12:26:47.140Z,103703.89
2023-02-13T12:29:35.113Z,103704.28
2023-02-13T12:32:14.980Z,103703.09
2023-02-13T12:35:11.454Z,103693.59
2023-02-13T12:37:52.840Z,103691.83
2023-02-13T12:40:37.743Z,103690.35
2023-02-13T12:43:40.841Z,103682.42
2023-02-13T12:46:38.150Z,103687.00
2023-02-13T12:49:27.807Z,103683.89
2023-02-13T12:52:00.950Z,103669.52
2023-02-13T12:54:42.636Z,103669.52
2023-02-13T12:57:15.805Z,103679.05
2023-02-13T12:59:57.651Z,103669.02
2023-02-13T13:02:42.656Z,103671.42
2023-02-13T13:05:18.049Z,103667.20
2023-02-13T13:07:53.723Z,103665.20
2023-02-13T13:10:29.197Z,103666.29
2023-02-13T13:13:34.414Z,103658.78
2023-02-13T13:16:09.722Z,103659.94
2023-02-13T13:18:54.980Z,103656.20
2023-02-13T13:21:33.444Z,103648.39
2023-02-13T13:24:18.776Z,103655.27
2023-02-13T13:26:51.981Z,103650.02
2023-02-13T13:29:27.475Z,103639.73
2023-02-13T13:32:00.067Z,103646.76
2023-02-13T13:34:32.379Z,103636.77
2023-02-13T13:37:09.399Z,103628.73
2023-02-13T13:40:01.183Z,103632.79
2023-02-13T13:42:37.234Z,103627.30
2023-02-13T13:45:07.572Z,103625.80
2023-02-13T13:47:45.864Z,103625.08
2023-02-13T13:50:31.023Z,103617.02
2023-02-13T13:53:12.601Z,103617.14
2023-02-13T13:55:55.964Z,103608.11
2023-02-13T13:58:37.822Z,103608.94
2023-02-13T14:01:19.313Z,103616.47
2023-02-13T14:03:52.183Z,103612.98
2023-02-13T14:06:24.793Z,103599.25
2023-02-13T14:08:58.040Z,103599.25
2023-02-13T14:11:36.456Z,103598.64
2023-02-13T14:17:20.027Z,103602.14
2023-02-13T14:19:53.084Z,103602.87
2023-02-13T14:22:34.211Z,103602.31
2023-02-13T14:25:06.952Z,103597.02
2023-02-13T14:27:39.972Z,103594.45
2023-02-13T14:30:19.123Z,103595.14
2023-02-13T14:32:49.058Z,103594.15
2023-02-13T14:35:30.206Z,103591.39
2023-02-13T14:38:02.938Z,103597.52
2023-02-13T14:40:49.835Z,103600.69
2023-02-13T14:43:38.034Z,103594.61
2023-02-13T14:46:28.623Z,103594.61
2023-02-13T14:49:19.293Z,103587.73
2023-02-13T14:52:01.079Z,103587.27
2023-02-13T14:54:39.986Z,103579.02
2023-02-13T14:57:18.827Z,103582.77
2023-02-13T14:59:54.462Z,103575.47
2023-02-13T15:02:26.795Z,103571.39
2023-02-13T15:05:11.267Z,103574.44
2023-02-13T15:07:44.318Z,103576.22
2023-02-13T15:10:37.488Z,103572.41
2023-02-13T15:13:08.914Z,103576.70
2023-02-13T15:15:39.201Z,103573.03
2023-02-13T15:18:14.413Z,103577.81
2023-02-13T15:20:45.074Z,103575.89
2023-02-13T15:23:24.058Z,103572.42
2023-02-13T15:26:07.949Z,103570.23
2023-02-13T15:28:37.961Z,103578.84
2023-02-13T15:31:10.611Z,103570.91
2023-02-13T15:33:52.134Z,103569.55
2023-02-13T15:36:26.146Z,103572.77
2023-02-13T15:39:06.210Z,103573.89
2023-02-13T15:41:44.706Z,103571.09
2023-02-13T15:44:20.078Z,103560.55
2023-02-13T15:46:54.686Z,103560.55
2023-02-13T15:49:27.594Z,103562.04
2023-02-13T15:52:08.266Z,103560.90
2023-02-13T15:54:38.107Z,103549.11
2023-02-13T15:57:09.989Z,103555.64
2023-02-13T15:59:41.335Z,103557.67
2023-02-13T16:02:16.902Z,103558.14
2023-02-13T16:04:48.009Z,103545.83
2023-02-13T16:07:17.837Z,103560.67
2023-02-13T16:09:47.554Z,103555.42
2023-02-13T16:12:23.155Z,103547.66
2023-02-13T16:15:02.205Z,103548.13
2023-02-13T16:17:34.830Z,103548.05
2023-02-13T16:20:25.353Z,103548.13
2023-02-13T16:23:00.666Z,103548.13
2023-02-13T16:25:33.573Z,103548.75
2023-02-13T16:28:06.331Z,103551.47
2023-02-13T16:30:42.125Z,103552.34
2023-02-13T16:33:23.192Z,103548.61
2023-02-13T16:35:59.017Z,103550.41
2023-02-13T16:38:31.582Z,103550.89
2023-02-13T16:41:04.706Z,103546.98
2023-02-13T16:43:44.115Z,103550.17
2023-02-13T16:46:34.338Z,103540.23
2023-02-13T16:49:07.802Z,103543.25
2023-02-13T16:54:38.189Z,103541.92
2023-02-13T16:57:20.821Z,103547.95
2023-02-13T16:59:56.546Z,103550.08
2023-02-13T17:02:40.761Z,103550.08
2023-02-13T17:05:13.830Z,103555.00
2023-02-13T17:07:50.172Z,103560.98
2023-02-13T17:10:33.671Z,103562.94
2023-02-13T17:13:05.880Z,103563.52
2023-02-13T17:15:36.028Z,103562.90
2023-02-13T17:18:08.081Z,103568.41
2023-02-13T17:20:40.529Z,103563.02
2023-02-13T17:23:19.054Z,103573.42
2023-02-13T17:25:49.737Z,103571.14
2023-02-13T17:28:22.593Z,103576.96
2023-02-13T17:30:56.429Z,103578.13
2023-02-13T17:33:32.031Z,103578.64
2023-02-13T17:36:02.484Z,103573.22
2023-02-13T17:38:32.311Z,103579.77
2023-02-13T17:41:04.924Z,103570.89
2023-02-13T17:43:34.755Z,103573.25
2023-02-13T17:46:06.232Z,103579.36
2023-02-13T17:48:36.480Z,103578.69
2023-02-13T17:51:06.791Z,103573.05
2023-02-13T17:53:37.229Z,103576.97
2023-02-13T17:56:08.451Z,103580.55
2023-02-13T17:58:38.291Z,103579.16
2023-02-13T18:01:09.868Z,103579.59
2023-02-13T18:03:40.335Z,103575.75
2023-02-13T18:06:15.916Z,103578.52
2023-02-13T18:08:45.593Z,103573.69
2023-02-13T18:11:15.404Z,103570.48
2023-02-13T18:13:46.922Z,103572.97
2023-02-13T18:16:16.840Z,103568.13
2023-02-13T18:18:48.692Z,103569.06
2023-02-13T18:21:18.609Z,103571.38
2023-02-13T18:23:48.730Z,103565.53
2023-02-13T18:26:18.546Z,103561.61
2023-02-13T18:28:50.016Z,103559.81
2023-02-13T18:31:20.749Z,103565.26
2023-02-13T18:33:50.642Z,103559.94
2023-02-13T18:36:20.146Z,103563.23
2023-02-13T18:38:50.986Z,103560.44
2023-02-13T18:41:21.777Z,103561.36
2023-02-13T18:43:51.441Z,103565.09
2023-02-13T18:46:21.134Z,103564.47
2023-02-13T18:48:51.175Z,103566.61
2023-02-13T18:51:20.658Z,103571.92
2023-02-13T18:53:50.435Z,103570.93
2023-02-13T18:56:24.844Z,103563.82
2023-02-13T18:58:54.889Z,103562.37
2023-02-13T19:01:25.270Z,103556.84
2023-02-13T19:03:55.546Z,103555.21
2023-02-13T19:06:28.644Z,103563.02
2023-02-13T19:08:59.749Z,103555.16
2023-02-13T19:11:30.476Z,103553.96
2023-02-13T19:14:02.310Z,103558.37
2023-02-13T19:16:33.956Z,103558.02
2023-02-13T19:19:05.953Z,103558.64
2023-02-13T19:21:38.412Z,103550.03
2023-02-13T19:24:13.969Z,103556.68
2023-02-13T19:26:44.653Z,103560.48
2023-02-13T19:29:14.514Z,103556.44
2023-02-13T19:31:44.704Z,103549.11
2023-02-13T19:34:14.524Z,103553.85
2023-02-13T19:36:44.172Z,103563.62
2023-02-13T19:39:14.409Z,103555.03
2023-02-13T19:41:44.562Z,103557.54
2023-02-13T19:44:14.403Z,103558.89
2023-02-13T19:46:44.402Z,103558.00
2023-02-13T19:49:14.344Z,103567.86
2023-02-13T19:51:45.763Z,103569.84
2023-02-13T19:54:15.236Z,103564.40
2023-02-13T19:56:45.086Z,103559.01
2023-02-13T19:59:14.860Z,103560.72
2023-02-13T20:01:45.734Z,103572.09
2023-02-13T20:04:15.592Z,103569.22
2023-02-13T20:06:45.888Z,103569.33
2023-02-13T20:09:15.859Z,103569.33
2023-02-13T20:11:45.640Z,103566.70
2023-02-13T20:14:15.415Z,103567.34
2023-02-13T20:16:46.503Z,103567.62
2023-02-13T20:19:16.474Z,103568.16
2023-02-13T20:21:46.275Z,103566.55
2023-02-13T20:24:16.110Z,103567.79
2023-02-13T20:26:45.872Z,103565.25
2023-02-13T20:29:15.885Z,103572.39
2023-02-13T20:31:46.215Z,103572.39
2023-02-13T20:34:16.040Z,103570.89
2023-02-13T20:36:45.835Z,103568.83
2023-02-13T20:39:15.724Z,103568.83
2023-02-13T20:41:47.147Z,103569.66
2023-02-13T20:44:19.141Z,103567.22
2023-02-13T20:46:50.950Z,103566.84
2023-02-13T20:49:21.941Z,103566.84
2023-02-13T20:51:51.760Z,103564.27
2023-02-13T20:54:21.333Z,103578.03
2023-02-13T20:56:51.127Z,103569.81
2023-02-13T20:59:21.063Z,103571.81
2023-02-13T21:01:50.853Z,103576.50
2023-02-13T21:04:21.008Z,103576.50
2023-02-13T21:06:50.856Z,103575.39
2023-02-13T21:09:20.711Z,103576.67
2023-02-13T21:11:50.702Z,103576.67
2023-02-13T21:14:23.588Z,103584.12
2023-02-13T21:16:53.512Z,103585.44
2023-02-13T21:19:23.934Z,103575.76
2023-02-13T21:21:53.820Z,103581.02
2023-02-13T21:24:24.189Z,103581.02
2023-02-13T21:26:54.405Z,103588.03
2023-02-13T21:29:24.180Z,103586.52
2023-02-13T21:31:53.999Z,103578.27
2023-02-13T21:34:24.147Z,103584.87
2023-02-13T21:36:54.130Z,103586.31
2023-02-13T21:39:24.029Z,103580.83
2023-02-13T21:41:53.782Z,103582.94
2023-02-13T21:44:23.716Z,103581.25
2023-02-13T21:46:53.734Z,103577.59
2023-02-13T21:49:24.968Z,103571.74
2023-02-13T21:51:54.624Z,103580.42
2023-02-13T21:54:24.564Z,103576.48
2023-02-13T21:56:54.400Z,103573.70
2023-02-13T21:59:24.221Z,103574.50
2023-02-13T22:01:54.708Z,103573.23
2023-02-13T22:04:24.453Z,103569.52
2023-02-13T22:06:54.815Z,103567.73
2023-02-13T22:09:26.252Z,103567.73
2023-02-13T22:11:56.076Z,103567.45
2023-02-13T22:14:25.829Z,103567.98
2023-02-13T22:16:55.729Z,103565.77
2023-02-13T22:19:26.089Z,103565.77
2023-02-13T22:21:55.973Z,103565.44
2023-02-13T22:24:27.679Z,103559.70
2023-02-13T22:26:57.496Z,103565.55
2023-02-13T22:29:27.308Z,103553.90
2023-02-13T22:31:57.214Z,103555.02
2023-02-13T22:34:27.064Z,103553.64
2023-02-13T22:36:58.387Z,103554.50
2023-02-13T22:39:28.514Z,103555.16
2023-02-13T22:41:58.287Z,103553.34
2023-02-13T22:44:29.048Z,103549.17
2023-02-13T22:46:58.948Z,103553.42
2023-02-13T22:49:28.829Z,103552.14
2023-02-13T22:51:58.589Z,103554.41
2023-02-13T22:54:28.296Z,103549.73
2023-02-13T22:56:58.094Z,103554.55
2023-02-13T22:59:27.946Z,103556.21
2023-02-13T23:01:57.792Z,103546.20
2023-02-13T23:04:27.687Z,103547.38
2023-02-13T23:06:57.523Z,103546.70
2023-02-13T23:09:27.448Z,103544.17
2023-02-13T23:12:14.733Z,103543.53
2023-02-13T23:14:46.808Z,103548.39
2023-02-13T23:17:34.031Z,103548.68
2023-02-13T23:20:05.320Z,103546.63
2023-02-13T23:22:35.930Z,103539.61
2023-02-13T23:25:06.931Z,103539.84
2023-02-13T23:27:37.384Z,103545.81
2023-02-13T23:30:11.028Z,103528.69
2023-02-13T23:32:41.247Z,103536.92
2023-02-13T23:35:12.178Z,103543.30
2023-02-13T23:37:42.621Z,103543.70
2023-02-13T23:40:15.001Z,103542.95
2023-02-13T23:42:44.900Z,103542.30
2023-02-13T23:45:14.688Z,103544.55
2023-02-13T23:47:44.857Z,103543.81
2023-02-13T23:50:15.263Z,103549.03
2023-02-13T23:52:45.091Z,103548.66
2023-02-13T23:55:14.609Z,103550.48
2023-02-13T23:57:44.375Z,103556.37
